sensor_id;sensor_type;location;lat;lon;timestamp;P1;durP1;ratioP1;P2;durP2;ratioP2
32748;SDS011;19119;52.474;13.710;2022-07-21T00:01:31;8.40;;;5.82;;
32748;SDS011;19119;52.474;13.710;2022-07-21T00:03:57;10.68;;;5.68;;
32748;SDS011;19119;52.474;13.710;2022-07-21T00:06:22;8.85;;;5.72;;
32748;SDS011;19119;52.474;13.710;2022-07-21T00:08:48;9.27;;;5.68;;
32748;SDS011;19119;52.474;13.710;2022-07-21T00:11:13;11.73;;;6.10;;
32748;SDS011;19119;52.474;13.710;2022-07-21T00:13:39;10.43;;;6.38;;
32748;SDS011;19119;52.474;13.710;2022-07-21T00:16:04;9.68;;;6.10;;
32748;SDS011;19119;52.474;13.710;2022-07-21T00:18:30;7.28;;;5.53;;
32748;SDS011;19119;52.474;13.710;2022-07-21T00:20:56;8.82;;;6.00;;
32748;SDS011;19119;52.474;13.710;2022-07-21T00:23:23;9.90;;;6.05;;
32748;SDS011;19119;52.474;13.710;2022-07-21T00:25:49;9.25;;;6.22;;
32748;SDS011;19119;52.474;13.710;2022-07-21T00:28:15;10.05;;;6.40;;
32748;SDS011;19119;52.474;13.710;2022-07-21T00:30:41;8.95;;;5.95;;
32748;SDS011;19119;52.474;13.710;2022-07-21T00:33:06;9.40;;;6.30;;
32748;SDS011;19119;52.474;13.710;2022-07-21T00:35:32;12.85;;;6.28;;
32748;SDS011;19119;52.474;13.710;2022-07-21T00:37:58;7.70;;;5.82;;
32748;SDS011;19119;52.474;13.710;2022-07-21T00:40:23;12.25;;;5.60;;
32748;SDS011;19119;52.474;13.710;2022-07-21T00:42:49;11.20;;;6.07;;
32748;SDS011;19119;52.474;13.710;2022-07-21T00:45:15;12.63;;;5.78;;
32748;SDS011;19119;52.474;13.710;2022-07-21T00:47:40;8.98;;;6.10;;
32748;SDS011;19119;52.474;13.710;2022-07-21T00:50:08;11.82;;;6.30;;
32748;SDS011;19119;52.474;13.710;2022-07-21T00:52:36;11.85;;;6.47;;
32748;SDS011;19119;52.474;13.710;2022-07-21T00:55:02;8.15;;;6.22;;
32748;SDS011;19119;52.474;13.710;2022-07-21T00:57:29;8.85;;;5.80;;
32748;SDS011;19119;52.474;13.710;2022-07-21T00:59:55;9.82;;;6.90;;
32748;SDS011;19119;52.474;13.710;2022-07-21T01:02:21;12.30;;;6.22;;
32748;SDS011;19119;52.474;13.710;2022-07-21T01:04:46;7.40;;;5.53;;
32748;SDS011;19119;52.474;13.710;2022-07-21T01:07:12;10.95;;;6.05;;
32748;SDS011;19119;52.474;13.710;2022-07-21T01:09:39;7.50;;;5.72;;
32748;SDS011;19119;52.474;13.710;2022-07-21T01:12:05;7.30;;;5.88;;
32748;SDS011;19119;52.474;13.710;2022-07-21T01:14:31;11.40;;;6.60;;
32748;SDS011;19119;52.474;13.710;2022-07-21T01:16:57;7.38;;;5.70;;
32748;SDS011;19119;52.474;13.710;2022-07-21T01:19:23;11.40;;;6.25;;
32748;SDS011;19119;52.474;13.710;2022-07-21T01:21:48;8.63;;;5.80;;
32748;SDS011;19119;52.474;13.710;2022-07-21T01:24:15;10.35;;;5.53;;
32748;SDS011;19119;52.474;13.710;2022-07-21T01:26:48;7.97;;;5.07;;
32748;SDS011;19119;52.474;13.710;2022-07-21T01:29:15;9.55;;;5.40;;
32748;SDS011;19119;52.474;13.710;2022-07-21T01:31:43;13.07;;;6.22;;
32748;SDS011;19119;52.474;13.710;2022-07-21T01:34:11;10.15;;;6.57;;
32748;SDS011;19119;52.474;13.710;2022-07-21T01:36:37;12.63;;;6.05;;
32748;SDS011;19119;52.474;13.710;2022-07-21T01:39:04;11.18;;;5.70;;
32748;SDS011;19119;52.474;13.710;2022-07-21T01:41:49;11.43;;;6.43;;
32748;SDS011;19119;52.474;13.710;2022-07-21T01:44:14;11.15;;;6.00;;
32748;SDS011;19119;52.474;13.710;2022-07-21T01:46:42;9.40;;;5.43;;
32748;SDS011;19119;52.474;13.710;2022-07-21T01:49:10;11.27;;;5.70;;
32748;SDS011;19119;52.474;13.710;2022-07-21T01:51:37;10.15;;;6.32;;
32748;SDS011;19119;52.474;13.710;2022-07-21T01:54:03;10.10;;;6.10;;
32748;SDS011;19119;52.474;13.710;2022-07-21T01:56:29;12.07;;;6.30;;
32748;SDS011;19119;52.474;13.710;2022-07-21T01:58:55;9.73;;;6.05;;
32748;SDS011;19119;52.474;13.710;2022-07-21T02:01:22;9.50;;;6.90;;
32748;SDS011;19119;52.474;13.710;2022-07-21T02:03:51;11.93;;;6.35;;
32748;SDS011;19119;52.474;13.710;2022-07-21T02:06:17;10.82;;;6.78;;
32748;SDS011;19119;52.474;13.710;2022-07-21T02:08:43;8.38;;;5.72;;
32748;SDS011;19119;52.474;13.710;2022-07-21T02:11:09;10.23;;;5.80;;
32748;SDS011;19119;52.474;13.710;2022-07-21T02:13:35;38.10;;;7.18;;
32748;SDS011;19119;52.474;13.710;2022-07-21T02:16:01;30.02;;;6.80;;
32748;SDS011;19119;52.474;13.710;2022-07-21T02:18:28;12.00;;;5.93;;
32748;SDS011;19119;52.474;13.710;2022-07-21T02:20:53;15.13;;;5.97;;
32748;SDS011;19119;52.474;13.710;2022-07-21T02:23:20;12.18;;;6.22;;
32748;SDS011;19119;52.474;13.710;2022-07-21T02:25:46;15.27;;;6.40;;
32748;SDS011;19119;52.474;13.710;2022-07-21T02:28:12;9.68;;;5.93;;
32748;SDS011;19119;52.474;13.710;2022-07-21T02:30:38;12.20;;;5.95;;
32748;SDS011;19119;52.474;13.710;2022-07-21T02:33:03;9.52;;;5.38;;
32748;SDS011;19119;52.474;13.710;2022-07-21T02:35:29;10.32;;;5.60;;
32748;SDS011;19119;52.474;13.710;2022-07-21T02:37:55;11.13;;;6.18;;
32748;SDS011;19119;52.474;13.710;2022-07-21T02:40:20;9.10;;;5.95;;
32748;SDS011;19119;52.474;13.710;2022-07-21T02:42:46;10.68;;;6.28;;
32748;SDS011;19119;52.474;13.710;2022-07-21T02:45:12;8.57;;;5.88;;
32748;SDS011;19119;52.474;13.710;2022-07-21T02:47:51;12.00;;;6.50;;
32748;SDS011;19119;52.474;13.710;2022-07-21T02:50:18;9.80;;;6.88;;
32748;SDS011;19119;52.474;13.710;2022-07-21T02:52:45;12.65;;;6.32;;
32748;SDS011;19119;52.474;13.710;2022-07-21T02:55:10;10.73;;;5.82;;
32748;SDS011;19119;52.474;13.710;2022-07-21T02:57:36;12.15;;;6.45;;
32748;SDS011;19119;52.474;13.710;2022-07-21T03:00:03;10.98;;;6.50;;
32748;SDS011;19119;52.474;13.710;2022-07-21T03:02:31;9.85;;;5.68;;
32748;SDS011;19119;52.474;13.710;2022-07-21T03:04:56;12.63;;;6.60;;
32748;SDS011;19119;52.474;13.710;2022-07-21T03:07:22;12.38;;;6.57;;
32748;SDS011;19119;52.474;13.710;2022-07-21T03:09:48;8.57;;;5.97;;
32748;SDS011;19119;52.474;13.710;2022-07-21T03:12:13;11.98;;;6.68;;
32748;SDS011;19119;52.474;13.710;2022-07-21T03:14:39;11.35;;;6.07;;
32748;SDS011;19119;52.474;13.710;2022-07-21T03:17:04;9.55;;;5.68;;
32748;SDS011;19119;52.474;13.710;2022-07-21T03:19:30;8.32;;;6.10;;
32748;SDS011;19119;52.474;13.710;2022-07-21T03:21:55;12.88;;;6.50;;
32748;SDS011;19119;52.474;13.710;2022-07-21T03:24:21;13.70;;;6.32;;
32748;SDS011;19119;52.474;13.710;2022-07-21T03:26:46;9.88;;;6.40;;
32748;SDS011;19119;52.474;13.710;2022-07-21T03:29:12;10.50;;;6.10;;
32748;SDS011;19119;52.474;13.710;2022-07-21T03:31:37;12.10;;;7.13;;
32748;SDS011;19119;52.474;13.710;2022-07-21T03:34:03;10.98;;;6.20;;
32748;SDS011;19119;52.474;13.710;2022-07-21T03:36:28;8.85;;;5.90;;
32748;SDS011;19119;52.474;13.710;2022-07-21T03:38:54;8.65;;;5.65;;
32748;SDS011;19119;52.474;13.710;2022-07-21T03:41:20;9.10;;;5.97;;
32748;SDS011;19119;52.474;13.710;2022-07-21T03:43:45;10.20;;;6.35;;
32748;SDS011;19119;52.474;13.710;2022-07-21T03:46:11;7.90;;;5.38;;
32748;SDS011;19119;52.474;13.710;2022-07-21T03:48:36;11.15;;;5.57;;
32748;SDS011;19119;52.474;13.710;2022-07-21T03:51:02;11.05;;;6.03;;
32748;SDS011;19119;52.474;13.710;2022-07-21T03:53:27;10.32;;;6.00;;
32748;SDS011;19119;52.474;13.710;2022-07-21T03:55:53;11.82;;;6.30;;
32748;SDS011;19119;52.474;13.710;2022-07-21T03:58:18;12.20;;;6.25;;
32748;SDS011;19119;52.474;13.710;2022-07-21T04:00:44;7.68;;;5.38;;
32748;SDS011;19119;52.474;13.710;2022-07-21T04:03:11;13.20;;;6.38;;
32748;SDS011;19119;52.474;13.710;2022-07-21T04:05:37;24.60;;;7.20;;
32748;SDS011;19119;52.474;13.710;2022-07-21T04:08:04;12.73;;;6.15;;
32748;SDS011;19119;52.474;13.710;2022-07-21T04:10:31;9.60;;;5.97;;
32748;SDS011;19119;52.474;13.710;2022-07-21T04:13:04;10.10;;;6.22;;
32748;SDS011;19119;52.474;13.710;2022-07-21T04:15:31;13.27;;;6.00;;
32748;SDS011;19119;52.474;13.710;2022-07-21T04:17:57;14.60;;;6.53;;
32748;SDS011;19119;52.474;13.710;2022-07-21T04:20:23;9.50;;;5.43;;
32748;SDS011;19119;52.474;13.710;2022-07-21T04:22:49;8.57;;;6.03;;
32748;SDS011;19119;52.474;13.710;2022-07-21T04:25:16;12.05;;;5.70;;
32748;SDS011;19119;52.474;13.710;2022-07-21T04:27:43;8.60;;;5.18;;
32748;SDS011;19119;52.474;13.710;2022-07-21T04:30:10;14.25;;;5.05;;
32748;SDS011;19119;52.474;13.710;2022-07-21T04:32:37;11.48;;;5.70;;
32748;SDS011;19119;52.474;13.710;2022-07-21T04:35:04;9.95;;;5.28;;
32748;SDS011;19119;52.474;13.710;2022-07-21T04:37:30;8.98;;;4.85;;
32748;SDS011;19119;52.474;13.710;2022-07-21T04:39:55;7.68;;;5.40;;
32748;SDS011;19119;52.474;13.710;2022-07-21T04:42:21;12.07;;;5.40;;
32748;SDS011;19119;52.474;13.710;2022-07-21T04:44:47;9.07;;;5.28;;
32748;SDS011;19119;52.474;13.710;2022-07-21T04:47:12;11.57;;;5.85;;
32748;SDS011;19119;52.474;13.710;2022-07-21T04:49:38;10.65;;;5.50;;
32748;SDS011;19119;52.474;13.710;2022-07-21T04:52:03;12.27;;;5.55;;
32748;SDS011;19119;52.474;13.710;2022-07-21T04:54:29;11.45;;;6.45;;
32748;SDS011;19119;52.474;13.710;2022-07-21T04:56:55;12.75;;;5.47;;
32748;SDS011;19119;52.474;13.710;2022-07-21T04:59:20;11.10;;;5.57;;
32748;SDS011;19119;52.474;13.710;2022-07-21T05:01:46;11.68;;;5.40;;
32748;SDS011;19119;52.474;13.710;2022-07-21T05:04:11;10.73;;;5.60;;
32748;SDS011;19119;52.474;13.710;2022-07-21T05:06:37;10.23;;;6.32;;
32748;SDS011;19119;52.474;13.710;2022-07-21T05:09:03;9.35;;;5.75;;
32748;SDS011;19119;52.474;13.710;2022-07-21T05:11:28;9.13;;;5.32;;
32748;SDS011;19119;52.474;13.710;2022-07-21T05:13:54;10.63;;;6.00;;
32748;SDS011;19119;52.474;13.710;2022-07-21T05:16:20;11.95;;;6.22;;
32748;SDS011;19119;52.474;13.710;2022-07-21T05:18:46;14.85;;;6.60;;
32748;SDS011;19119;52.474;13.710;2022-07-21T05:21:12;9.27;;;6.00;;
32748;SDS011;19119;52.474;13.710;2022-07-21T05:23:37;16.13;;;6.75;;
32748;SDS011;19119;52.474;13.710;2022-07-21T05:26:03;14.95;;;6.45;;
32748;SDS011;19119;52.474;13.710;2022-07-21T05:28:28;8.48;;;6.80;;
32748;SDS011;19119;52.474;13.710;2022-07-21T05:30:54;11.00;;;6.85;;
32748;SDS011;19119;52.474;13.710;2022-07-21T05:33:20;10.45;;;7.03;;
32748;SDS011;19119;52.474;13.710;2022-07-21T05:35:45;14.93;;;7.05;;
32748;SDS011;19119;52.474;13.710;2022-07-21T05:38:11;12.90;;;7.78;;
32748;SDS011;19119;52.474;13.710;2022-07-21T05:40:36;13.15;;;8.45;;
32748;SDS011;19119;52.474;13.710;2022-07-21T05:43:02;11.45;;;8.50;;
32748;SDS011;19119;52.474;13.710;2022-07-21T05:45:27;11.10;;;7.32;;
32748;SDS011;19119;52.474;13.710;2022-07-21T05:47:53;15.93;;;9.18;;
32748;SDS011;19119;52.474;13.710;2022-07-21T05:50:18;16.38;;;9.05;;
32748;SDS011;19119;52.474;13.710;2022-07-21T05:52:44;13.25;;;8.68;;
32748;SDS011;19119;52.474;13.710;2022-07-21T05:55:10;16.38;;;9.98;;
32748;SDS011;19119;52.474;13.710;2022-07-21T05:57:36;14.18;;;9.50;;
32748;SDS011;19119;52.474;13.710;2022-07-21T06:00:03;16.15;;;9.38;;
32748;SDS011;19119;52.474;13.710;2022-07-21T06:02:29;19.10;;;10.35;;
32748;SDS011;19119;52.474;13.710;2022-07-21T06:04:56;11.85;;;10.57;;
32748;SDS011;19119;52.474;13.710;2022-07-21T06:07:22;13.55;;;9.85;;
32748;SDS011;19119;52.474;13.710;2022-07-21T06:09:47;16.58;;;10.50;;
32748;SDS011;19119;52.474;13.710;2022-07-21T06:12:13;17.60;;;10.57;;
32748;SDS011;19119;52.474;13.710;2022-07-21T06:14:39;16.05;;;11.38;;
32748;SDS011;19119;52.474;13.710;2022-07-21T06:17:04;17.10;;;11.60;;
32748;SDS011;19119;52.474;13.710;2022-07-21T06:19:30;17.83;;;11.95;;
32748;SDS011;19119;52.474;13.710;2022-07-21T06:21:56;16.00;;;11.85;;
32748;SDS011;19119;52.474;13.710;2022-07-21T06:24:22;18.52;;;11.90;;
32748;SDS011;19119;52.474;13.710;2022-07-21T06:26:48;17.88;;;12.30;;
32748;SDS011;19119;52.474;13.710;2022-07-21T06:29:13;14.98;;;12.25;;
32748;SDS011;19119;52.474;13.710;2022-07-21T06:31:39;23.17;;;12.90;;
32748;SDS011;19119;52.474;13.710;2022-07-21T06:34:05;17.80;;;12.18;;
32748;SDS011;19119;52.474;13.710;2022-07-21T06:36:30;19.05;;;12.45;;
32748;SDS011;19119;52.474;13.710;2022-07-21T06:38:56;17.25;;;12.55;;
32748;SDS011;19119;52.474;13.710;2022-07-21T06:41:22;17.50;;;12.73;;
32748;SDS011;19119;52.474;13.710;2022-07-21T06:43:47;18.10;;;12.90;;
32748;SDS011;19119;52.474;13.710;2022-07-21T06:46:13;18.10;;;12.63;;
32748;SDS011;19119;52.474;13.710;2022-07-21T06:48:38;18.52;;;13.07;;
32748;SDS011;19119;52.474;13.710;2022-07-21T06:51:04;21.10;;;12.98;;
32748;SDS011;19119;52.474;13.710;2022-07-21T06:53:29;19.30;;;13.00;;
32748;SDS011;19119;52.474;13.710;2022-07-21T06:55:55;20.67;;;13.70;;
32748;SDS011;19119;52.474;13.710;2022-07-21T06:58:21;20.88;;;13.05;;
32748;SDS011;19119;52.474;13.710;2022-07-21T07:00:49;16.40;;;12.85;;
32748;SDS011;19119;52.474;13.710;2022-07-21T07:03:16;15.23;;;12.75;;
32748;SDS011;19119;52.474;13.710;2022-07-21T07:05:43;20.60;;;12.93;;
32748;SDS011;19119;52.474;13.710;2022-07-21T07:08:09;21.85;;;11.95;;
32748;SDS011;19119;52.474;13.710;2022-07-21T07:10:35;19.05;;;12.68;;
32748;SDS011;19119;52.474;13.710;2022-07-21T07:13:01;18.30;;;13.60;;
32748;SDS011;19119;52.474;13.710;2022-07-21T07:15:27;18.08;;;13.63;;
32748;SDS011;19119;52.474;13.710;2022-07-21T07:17:53;19.35;;;13.25;;
32748;SDS011;19119;52.474;13.710;2022-07-21T07:20:19;22.40;;;13.68;;
32748;SDS011;19119;52.474;13.710;2022-07-21T07:22:45;14.82;;;12.98;;
32748;SDS011;19119;52.474;13.710;2022-07-21T07:25:10;15.98;;;12.65;;
32748;SDS011;19119;52.474;13.710;2022-07-21T07:27:36;19.35;;;12.95;;
32748;SDS011;19119;52.474;13.710;2022-07-21T07:30:02;16.13;;;13.35;;
32748;SDS011;19119;52.474;13.710;2022-07-21T07:32:28;18.15;;;13.32;;
32748;SDS011;19119;52.474;13.710;2022-07-21T07:34:54;20.90;;;13.48;;
32748;SDS011;19119;52.474;13.710;2022-07-21T07:37:19;16.23;;;12.50;;
32748;SDS011;19119;52.474;13.710;2022-07-21T07:39:45;20.17;;;13.07;;
32748;SDS011;19119;52.474;13.710;2022-07-21T07:42:10;19.23;;;12.65;;
32748;SDS011;19119;52.474;13.710;2022-07-21T07:44:36;19.25;;;13.55;;
32748;SDS011;19119;52.474;13.710;2022-07-21T07:47:02;18.08;;;13.52;;
32748;SDS011;19119;52.474;13.710;2022-07-21T07:49:28;16.30;;;12.90;;
32748;SDS011;19119;52.474;13.710;2022-07-21T07:51:55;17.63;;;12.60;;
32748;SDS011;19119;52.474;13.710;2022-07-21T07:54:21;19.02;;;12.63;;
32748;SDS011;19119;52.474;13.710;2022-07-21T07:56:46;20.92;;;13.35;;
32748;SDS011;19119;52.474;13.710;2022-07-21T07:59:12;17.45;;;12.40;;
32748;SDS011;19119;52.474;13.710;2022-07-21T08:01:37;17.05;;;12.43;;
32748;SDS011;19119;52.474;13.710;2022-07-21T08:04:03;17.75;;;13.07;;
32748;SDS011;19119;52.474;13.710;2022-07-21T08:06:28;20.67;;;13.02;;
32748;SDS011;19119;52.474;13.710;2022-07-21T08:08:54;17.98;;;11.32;;
32748;SDS011;19119;52.474;13.710;2022-07-21T08:11:20;15.32;;;11.70;;
32748;SDS011;19119;52.474;13.710;2022-07-21T08:13:45;17.52;;;11.65;;
32748;SDS011;19119;52.474;13.710;2022-07-21T08:16:11;17.65;;;11.70;;
32748;SDS011;19119;52.474;13.710;2022-07-21T08:18:39;13.90;;;12.02;;
32748;SDS011;19119;52.474;13.710;2022-07-21T08:21:05;17.58;;;12.27;;
32748;SDS011;19119;52.474;13.710;2022-07-21T08:23:30;15.70;;;11.93;;
32748;SDS011;19119;52.474;13.710;2022-07-21T08:25:56;15.48;;;11.90;;
32748;SDS011;19119;52.474;13.710;2022-07-21T08:28:22;21.50;;;12.55;;
32748;SDS011;19119;52.474;13.710;2022-07-21T08:30:47;15.98;;;11.63;;
32748;SDS011;19119;52.474;13.710;2022-07-21T08:33:13;16.08;;;11.70;;
32748;SDS011;19119;52.474;13.710;2022-07-21T08:35:38;19.80;;;11.23;;
32748;SDS011;19119;52.474;13.710;2022-07-21T08:38:05;16.98;;;11.00;;
32748;SDS011;19119;52.474;13.710;2022-07-21T08:40:33;16.27;;;11.48;;
32748;SDS011;19119;52.474;13.710;2022-07-21T08:43:01;12.93;;;10.93;;
32748;SDS011;19119;52.474;13.710;2022-07-21T08:45:28;18.33;;;10.52;;
32748;SDS011;19119;52.474;13.710;2022-07-21T08:47:55;15.10;;;10.63;;
32748;SDS011;19119;52.474;13.710;2022-07-21T08:50:22;14.55;;;10.45;;
32748;SDS011;19119;52.474;13.710;2022-07-21T08:52:49;12.90;;;9.95;;
32748;SDS011;19119;52.474;13.710;2022-07-21T08:55:15;15.93;;;10.02;;
32748;SDS011;19119;52.474;13.710;2022-07-21T08:57:40;16.10;;;9.90;;
32748;SDS011;19119;52.474;13.710;2022-07-21T09:00:10;15.90;;;10.25;;
32748;SDS011;19119;52.474;13.710;2022-07-21T09:02:36;12.57;;;10.18;;
32748;SDS011;19119;52.474;13.710;2022-07-21T09:05:03;17.52;;;9.90;;
32748;SDS011;19119;52.474;13.710;2022-07-21T09:07:46;12.25;;;9.65;;
32748;SDS011;19119;52.474;13.710;2022-07-21T09:10:13;14.63;;;9.70;;
32748;SDS011;19119;52.474;13.710;2022-07-21T09:12:48;12.43;;;9.30;;
32748;SDS011;19119;52.474;13.710;2022-07-21T09:15:16;10.80;;;9.18;;
32748;SDS011;19119;52.474;13.710;2022-07-21T09:17:43;13.27;;;8.98;;
32748;SDS011;19119;52.474;13.710;2022-07-21T09:20:30;14.07;;;8.35;;
32748;SDS011;19119;52.474;13.710;2022-07-21T09:23:05;11.70;;;9.05;;
32748;SDS011;19119;52.474;13.710;2022-07-21T09:25:39;11.25;;;8.88;;
32748;SDS011;19119;52.474;13.710;2022-07-21T09:28:29;12.75;;;8.68;;
32748;SDS011;19119;52.474;13.710;2022-07-21T09:35:54;13.95;;;8.40;;
32748;SDS011;19119;52.474;13.710;2022-07-21T09:38:23;14.30;;;8.55;;
32748;SDS011;19119;52.474;13.710;2022-07-21T09:40:49;14.55;;;8.57;;
32748;SDS011;19119;52.474;13.710;2022-07-21T09:46:10;11.73;;;8.57;;
32748;SDS011;19119;52.474;13.710;2022-07-21T09:48:44;13.32;;;8.65;;
32748;SDS011;19119;52.474;13.710;2022-07-21T09:53:54;13.52;;;9.07;;
32748;SDS011;19119;52.474;13.710;2022-07-21T09:56:29;10.63;;;8.13;;
32748;SDS011;19119;52.474;13.710;2022-07-21T09:59:06;11.07;;;8.10;;
32748;SDS011;19119;52.474;13.710;2022-07-21T10:01:34;10.38;;;6.90;;
32748;SDS011;19119;52.474;13.710;2022-07-21T10:04:01;10.55;;;6.50;;
32748;SDS011;19119;52.474;13.710;2022-07-21T10:06:28;14.07;;;6.78;;
32748;SDS011;19119;52.474;13.710;2022-07-21T10:08:56;9.93;;;6.78;;
32748;SDS011;19119;52.474;13.710;2022-07-21T10:11:23;13.63;;;8.55;;
32748;SDS011;19119;52.474;13.710;2022-07-21T10:13:50;14.73;;;6.32;;
32748;SDS011;19119;52.474;13.710;2022-07-21T10:16:16;10.00;;;5.80;;
32748;SDS011;19119;52.474;13.710;2022-07-21T10:21:32;10.85;;;5.47;;
32748;SDS011;19119;52.474;13.710;2022-07-21T10:24:20;7.22;;;5.03;;
32748;SDS011;19119;52.474;13.710;2022-07-21T10:27:05;5.88;;;4.40;;
32748;SDS011;19119;52.474;13.710;2022-07-21T10:32:36;8.45;;;5.13;;
32748;SDS011;19119;52.474;13.710;2022-07-21T10:35:26;11.15;;;4.78;;
32748;SDS011;19119;52.474;13.710;2022-07-21T10:37:54;9.82;;;5.75;;
32748;SDS011;19119;52.474;13.710;2022-07-21T10:45:32;11.05;;;5.45;;
32748;SDS011;19119;52.474;13.710;2022-07-21T10:48:03;7.55;;;5.28;;
32748;SDS011;19119;52.474;13.710;2022-07-21T10:50:32;6.68;;;4.47;;
32748;SDS011;19119;52.474;13.710;2022-07-21T10:53:00;6.82;;;4.43;;
32748;SDS011;19119;52.474;13.710;2022-07-21T10:55:29;13.65;;;4.57;;
32748;SDS011;19119;52.474;13.710;2022-07-21T10:58:09;8.70;;;4.90;;
32748;SDS011;19119;52.474;13.710;2022-07-21T11:03:17;8.30;;;4.55;;
32748;SDS011;19119;52.474;13.710;2022-07-21T11:08:30;8.00;;;4.28;;
32748;SDS011;19119;52.474;13.710;2022-07-21T11:19:31;8.10;;;4.68;;
32748;SDS011;19119;52.474;13.710;2022-07-21T11:22:06;6.85;;;4.30;;
32748;SDS011;19119;52.474;13.710;2022-07-21T11:24:34;7.93;;;4.22;;
32748;SDS011;19119;52.474;13.710;2022-07-21T11:27:02;7.55;;;4.03;;
32748;SDS011;19119;52.474;13.710;2022-07-21T11:29:33;8.93;;;4.20;;
32748;SDS011;19119;52.474;13.710;2022-07-21T11:32:00;8.43;;;4.70;;
32748;SDS011;19119;52.474;13.710;2022-07-21T11:34:36;7.93;;;4.50;;
32748;SDS011;19119;52.474;13.710;2022-07-21T11:37:07;7.27;;;4.53;;
32748;SDS011;19119;52.474;13.710;2022-07-21T11:39:34;11.63;;;3.85;;
32748;SDS011;19119;52.474;13.710;2022-07-21T11:42:04;7.65;;;4.30;;
32748;SDS011;19119;52.474;13.710;2022-07-21T11:46:58;7.13;;;5.00;;
32748;SDS011;19119;52.474;13.710;2022-07-21T11:49:25;5.15;;;4.60;;
32748;SDS011;19119;52.474;13.710;2022-07-21T11:51:52;5.07;;;4.10;;
32748;SDS011;19119;52.474;13.710;2022-07-21T11:54:21;6.57;;;4.30;;
32748;SDS011;19119;52.474;13.710;2022-07-21T11:56:51;12.52;;;5.00;;
32748;SDS011;19119;52.474;13.710;2022-07-21T11:59:18;7.30;;;5.03;;
32748;SDS011;19119;52.474;13.710;2022-07-21T12:02:27;5.97;;;4.80;;
32748;SDS011;19119;52.474;13.710;2022-07-21T12:07:24;6.95;;;4.82;;
32748;SDS011;19119;52.474;13.710;2022-07-21T12:09:54;8.73;;;4.50;;
32748;SDS011;19119;52.474;13.710;2022-07-21T12:12:31;7.18;;;4.63;;
32748;SDS011;19119;52.474;13.710;2022-07-21T12:14:56;10.23;;;4.82;;
32748;SDS011;19119;52.474;13.710;2022-07-21T12:17:34;5.45;;;4.82;;
32748;SDS011;19119;52.474;13.710;2022-07-21T12:20:01;8.30;;;4.43;;
32748;SDS011;19119;52.474;13.710;2022-07-21T12:22:32;8.95;;;4.78;;
32748;SDS011;19119;52.474;13.710;2022-07-21T12:24:58;8.85;;;4.70;;
32748;SDS011;19119;52.474;13.710;2022-07-21T12:27:24;7.25;;;4.80;;
32748;SDS011;19119;52.474;13.710;2022-07-21T12:29:49;6.28;;;4.90;;
32748;SDS011;19119;52.474;13.710;2022-07-21T12:32:37;8.27;;;4.97;;
32748;SDS011;19119;52.474;13.710;2022-07-21T12:35:05;6.68;;;5.10;;
32748;SDS011;19119;52.474;13.710;2022-07-21T12:37:53;7.22;;;5.00;;
32748;SDS011;19119;52.474;13.710;2022-07-21T12:40:21;7.10;;;5.50;;
32748;SDS011;19119;52.474;13.710;2022-07-21T12:42:47;14.77;;;4.88;;
32748;SDS011;19119;52.474;13.710;2022-07-21T12:45:14;8.35;;;4.80;;
32748;SDS011;19119;52.474;13.710;2022-07-21T12:47:41;11.00;;;5.10;;
32748;SDS011;19119;52.474;13.710;2022-07-21T12:50:08;7.47;;;4.82;;
32748;SDS011;19119;52.474;13.710;2022-07-21T12:52:38;6.53;;;4.60;;
32748;SDS011;19119;52.474;13.710;2022-07-21T12:55:04;5.00;;;4.47;;
32748;SDS011;19119;52.474;13.710;2022-07-21T12:57:31;7.20;;;4.45;;
32748;SDS011;19119;52.474;13.710;2022-07-21T12:59:57;7.13;;;4.03;;
32748;SDS011;19119;52.474;13.710;2022-07-21T13:02:24;5.72;;;4.25;;
32748;SDS011;19119;52.474;13.710;2022-07-21T13:04:50;20.05;;;4.38;;
32748;SDS011;19119;52.474;13.710;2022-07-21T13:07:15;8.15;;;4.35;;
32748;SDS011;19119;52.474;13.710;2022-07-21T13:09:41;5.40;;;3.95;;
32748;SDS011;19119;52.474;13.710;2022-07-21T13:12:07;12.70;;;3.85;;
32748;SDS011;19119;52.474;13.710;2022-07-21T13:14:33;10.25;;;3.83;;
32748;SDS011;19119;52.474;13.710;2022-07-21T13:16:59;7.07;;;3.88;;
32748;SDS011;19119;52.474;13.710;2022-07-21T13:19:24;5.95;;;3.22;;
32748;SDS011;19119;52.474;13.710;2022-07-21T13:21:51;8.57;;;4.40;;
32748;SDS011;19119;52.474;13.710;2022-07-21T13:24:17;7.82;;;3.97;;
32748;SDS011;19119;52.474;13.710;2022-07-21T13:26:43;6.10;;;3.50;;
32748;SDS011;19119;52.474;13.710;2022-07-21T13:29:08;5.63;;;3.38;;
32748;SDS011;19119;52.474;13.710;2022-07-21T13:31:34;6.25;;;3.65;;
32748;SDS011;19119;52.474;13.710;2022-07-21T13:34:03;8.07;;;4.32;;
32748;SDS011;19119;52.474;13.710;2022-07-21T13:36:32;7.82;;;3.95;;
32748;SDS011;19119;52.474;13.710;2022-07-21T13:38:59;7.07;;;4.07;;
32748;SDS011;19119;52.474;13.710;2022-07-21T13:41:24;5.22;;;3.83;;
32748;SDS011;19119;52.474;13.710;2022-07-21T13:43:50;7.32;;;3.78;;
32748;SDS011;19119;52.474;13.710;2022-07-21T13:46:16;7.10;;;4.55;;
32748;SDS011;19119;52.474;13.710;2022-07-21T13:48:42;8.07;;;4.18;;
32748;SDS011;19119;52.474;13.710;2022-07-21T13:51:08;6.28;;;4.40;;
32748;SDS011;19119;52.474;13.710;2022-07-21T13:53:34;7.82;;;4.40;;
32748;SDS011;19119;52.474;13.710;2022-07-21T13:56:00;9.98;;;4.57;;
32748;SDS011;19119;52.474;13.710;2022-07-21T13:58:25;6.20;;;4.10;;
32748;SDS011;19119;52.474;13.710;2022-07-21T14:00:51;8.25;;;4.75;;
32748;SDS011;19119;52.474;13.710;2022-07-21T14:03:18;6.38;;;4.22;;
32748;SDS011;19119;52.474;13.710;2022-07-21T14:05:43;6.93;;;4.30;;
32748;SDS011;19119;52.474;13.710;2022-07-21T14:08:09;10.05;;;4.63;;
32748;SDS011;19119;52.474;13.710;2022-07-21T14:10:35;11.95;;;5.25;;
32748;SDS011;19119;52.474;13.710;2022-07-21T14:13:00;9.60;;;6.13;;
32748;SDS011;19119;52.474;13.710;2022-07-21T14:15:26;8.88;;;4.82;;
32748;SDS011;19119;52.474;13.710;2022-07-21T14:17:52;8.60;;;5.40;;
32748;SDS011;19119;52.474;13.710;2022-07-21T14:20:17;5.93;;;4.93;;
32748;SDS011;19119;52.474;13.710;2022-07-21T14:22:43;11.38;;;5.00;;
32748;SDS011;19119;52.474;13.710;2022-07-21T14:25:08;10.82;;;4.80;;
32748;SDS011;19119;52.474;13.710;2022-07-21T14:27:43;6.55;;;5.22;;
32748;SDS011;19119;52.474;13.710;2022-07-21T14:30:09;7.50;;;4.88;;
32748;SDS011;19119;52.474;13.710;2022-07-21T14:32:35;8.02;;;5.38;;
32748;SDS011;19119;52.474;13.710;2022-07-21T14:35:00;10.73;;;6.05;;
32748;SDS011;19119;52.474;13.710;2022-07-21T14:37:26;8.20;;;6.22;;
32748;SDS011;19119;52.474;13.710;2022-07-21T14:39:51;7.38;;;5.63;;
32748;SDS011;19119;52.474;13.710;2022-07-21T14:42:17;10.18;;;6.35;;
32748;SDS011;19119;52.474;13.710;2022-07-21T14:44:43;12.77;;;6.68;;
32748;SDS011;19119;52.474;13.710;2022-07-21T14:47:09;7.10;;;6.07;;
32748;SDS011;19119;52.474;13.710;2022-07-21T14:49:35;9.35;;;6.38;;
32748;SDS011;19119;52.474;13.710;2022-07-21T14:52:01;11.18;;;6.70;;
32748;SDS011;19119;52.474;13.710;2022-07-21T14:54:28;10.70;;;6.93;;
32748;SDS011;19119;52.474;13.710;2022-07-21T14:56:53;9.73;;;6.28;;
32748;SDS011;19119;52.474;13.710;2022-07-21T14:59:19;8.45;;;6.18;;
32748;SDS011;19119;52.474;13.710;2022-07-21T15:01:44;11.25;;;6.70;;
32748;SDS011;19119;52.474;13.710;2022-07-21T15:04:10;8.13;;;6.47;;